Terminal Aerodrome Forecast
Issued by NWS

Home | Current Version | Previous Version | Text Only | Print | Product List | Glossary On
Versions: 1 2 3 4 5 6 7 8 9 10 11 12 13 14 15 16
023
FTUS43 KILX 072336
TAFCMI
TAF
KCMI 072336Z 0800/0824 28010KT P6SM BKN120
     FM080700 29011KT P6SM SCT080
     FM081900 28015G23KT P6SM BKN035
     FM082100 28015G23KT P6SM BKN030=

USA.gov is the U.S. government's official web portal to all federal, state and local government web resources and services.